Terminal Aerodrome Forecast
Issued by NWS

Home | Current Version | Previous Version | Text Only | Print | Product List | Glossary On
Versions: 1 2 3 4 5 6 7 8 9 10 11 12 13 14 15 16 17 18 19 20 21 22 23 24 25 26 27
000
FTUS41 KBUF 260200 AAA
TAFJHW
TAF AMD
KJHW 260255Z 2603/2624 29019G25KT P6SM FEW250
     FM260600 30014G23KT P6SM SCT040
     FM261100 29015G25KT P6SM BKN025
     FM261800 29017KT P6SM BKN015
      AMD LTD TO CLD VIS AND WIND=

USA.gov is the U.S. government's official web portal to all federal, state and local government web resources and services.